integrated web briefing

Basic information
Name Wroclaw - Strachowice Airport
ICAO EPWR
IATA WRO
Latitude N51° 06.10'
Longitude E16° 53.09'
Runways 11/29 | 2503m x 50m
Elevation 399.0ft

Arrivals
Callsign From

Departures
Callsign To

ATC Bookings
Callsign Time [UTC]

Metar

EPWR 180730Z 28005KT 9999 OVC029 09/07 Q1025


Runways
Runway Course Dimensions Equipment Surface
11
112° 2503m x 45m PAPI 3° CONCRETE / ASPHALT
29
292° 2503m x 45m ILS CAT II, PAPI 3° CONCRETE / ASPHALT

NAV Aids
Name Type Frequency / Course
WCL VOR / DME 111.65
WRO ILS CAT II 110.30 / 292°

Air Traffic Control
Callsign Name Frequency
EPWR_DEL Wroclaw Delivery 121.800 MHz
EPWR_TWR Wroclaw Tower 120.250 MHz
EPPO_S_APP Poznan Approach 127.220 MHz
EPPO_N_APP Poznan Approach 120.020 MHz
EPWW_S_CTR Warszawa Radar (bandbox) 125.450 MHz